HTSO

Songea Airport

Songea, Tanzania
METAR HTSO 181400Z 20010KT 9999 BKN023 FEW024CB SCT070 24/21 Q1016 RETSRA
Observed Flight Rules
Dec-18 @ 14:00 UTC (23 hours ago) Marginal Visual Flight Rules
Wind Visibility Clouds
200° at 10 knots 10,000+ meters
  • Broken at 2,300' AGL
  • Few at 2,400' AGL
  • Scattered at 7,000' AGL
Temperatures Readings
Current 24°C / 75°F
Dewpoint 21°C / 70°F
Humidity 83%
Altimeter 30" Hg
Pressure 1016 hPa
Elevation 1067
METAR HTSO 181400Z 20010KT 9999 BKN023 FEW024CB SCT070 24/21 Q1016 RETSRA
Observed Flight Rules
Dec-18 @ 14:00 UTC
(23 hours ago)
MVFR
Wind Visibility
200° at 10 knots 10,000+ meters
Clouds
  • Broken at 2,300' AGL
  • Few at 2,400' AGL
  • Scattered at 7,000' AGL
Temperature Dewpoint
24°C / 75°F 21°C / 70°F
Humidity Altimeter Pressure
83% 30" Hg 1016 hPa